sensor_id;sensor_type;location;lat;lon;timestamp;temperature;humidity
27266;DHT22;14766;51.380;13.762;2023-04-01T00:00:07;13.20;71.50
27266;DHT22;14766;51.380;13.762;2023-04-01T00:02:39;13.10;71.50
27266;DHT22;14766;51.380;13.762;2023-04-01T00:05:08;13.10;71.70
27266;DHT22;14766;51.380;13.762;2023-04-01T00:07:37;13.10;71.70
27266;DHT22;14766;51.380;13.762;2023-04-01T00:10:06;13.10;71.80
27266;DHT22;14766;51.380;13.762;2023-04-01T00:12:34;13.10;71.80
27266;DHT22;14766;51.380;13.762;2023-04-01T00:15:04;13.10;71.80
27266;DHT22;14766;51.380;13.762;2023-04-01T00:17:31;13.10;72.00
27266;DHT22;14766;51.380;13.762;2023-04-01T00:19:59;13.10;72.10
27266;DHT22;14766;51.380;13.762;2023-04-01T00:22:26;13.10;72.40
27266;DHT22;14766;51.380;13.762;2023-04-01T00:24:53;13.10;72.50
27266;DHT22;14766;51.380;13.762;2023-04-01T00:27:20;13.10;72.80
27266;DHT22;14766;51.380;13.762;2023-04-01T00:29:47;13.10;72.90
27266;DHT22;14766;51.380;13.762;2023-04-01T00:32:15;13.00;73.00
27266;DHT22;14766;51.380;13.762;2023-04-01T00:34:42;13.00;72.90
27266;DHT22;14766;51.380;13.762;2023-04-01T00:37:08;13.00;73.10
27266;DHT22;14766;51.380;13.762;2023-04-01T00:39:36;13.00;73.30
27266;DHT22;14766;51.380;13.762;2023-04-01T00:42:03;13.00;73.30
27266;DHT22;14766;51.380;13.762;2023-04-01T00:44:33;13.00;73.40
27266;DHT22;14766;51.380;13.762;2023-04-01T00:47:03;13.00;73.50
27266;DHT22;14766;51.380;13.762;2023-04-01T00:49:34;13.00;73.30
27266;DHT22;14766;51.380;13.762;2023-04-01T00:52:05;13.00;73.40
27266;DHT22;14766;51.380;13.762;2023-04-01T00:54:34;13.00;73.30
27266;DHT22;14766;51.380;13.762;2023-04-01T00:57:28;13.00;73.30
27266;DHT22;14766;51.380;13.762;2023-04-01T00:59:56;13.10;73.30
27266;DHT22;14766;51.380;13.762;2023-04-01T01:02:24;13.10;73.30
27266;DHT22;14766;51.380;13.762;2023-04-01T01:04:52;13.10;73.40
27266;DHT22;14766;51.380;13.762;2023-04-01T01:07:40;13.10;73.40
27266;DHT22;14766;51.380;13.762;2023-04-01T01:10:29;13.00;73.60
27266;DHT22;14766;51.380;13.762;2023-04-01T01:13:17;13.00;73.60
27266;DHT22;14766;51.380;13.762;2023-04-01T01:24:14;13.00;73.70
27266;DHT22;14766;51.380;13.762;2023-04-01T01:27:04;13.10;73.80
27266;DHT22;14766;51.380;13.762;2023-04-01T01:37:58;13.00;73.80
27266;DHT22;14766;51.380;13.762;2023-04-01T01:40:27;13.00;74.50
27266;DHT22;14766;51.380;13.762;2023-04-01T01:42:59;13.00;73.50
27266;DHT22;14766;51.380;13.762;2023-04-01T01:45:29;13.00;73.50
27266;DHT22;14766;51.380;13.762;2023-04-01T01:48:00;13.00;73.60
27266;DHT22;14766;51.380;13.762;2023-04-01T01:50:29;13.00;73.60
27266;DHT22;14766;51.380;13.762;2023-04-01T01:53:04;13.00;73.70
27266;DHT22;14766;51.380;13.762;2023-04-01T01:55:35;13.00;73.50
27266;DHT22;14766;51.380;13.762;2023-04-01T01:58:09;13.00;73.60
27266;DHT22;14766;51.380;13.762;2023-04-01T02:00:38;13.00;73.60
27266;DHT22;14766;51.380;13.762;2023-04-01T02:03:06;13.00;73.80
27266;DHT22;14766;51.380;13.762;2023-04-01T02:05:34;13.00;73.50
27266;DHT22;14766;51.380;13.762;2023-04-01T02:08:44;13.00;73.50
27266;DHT22;14766;51.380;13.762;2023-04-01T02:11:13;13.00;73.50
27266;DHT22;14766;51.380;13.762;2023-04-01T02:14:17;13.00;73.40
27266;DHT22;14766;51.380;13.762;2023-04-01T02:16:58;13.00;73.40
27266;DHT22;14766;51.380;13.762;2023-04-01T02:19:44;13.00;73.30
27266;DHT22;14766;51.380;13.762;2023-04-01T02:22:20;13.00;73.30
27266;DHT22;14766;51.380;13.762;2023-04-01T02:24:50;13.00;73.40
27266;DHT22;14766;51.380;13.762;2023-04-01T02:27:20;13.00;73.40
27266;DHT22;14766;51.380;13.762;2023-04-01T02:29:47;13.00;73.30
27266;DHT22;14766;51.380;13.762;2023-04-01T02:32:14;13.00;73.30
27266;DHT22;14766;51.380;13.762;2023-04-01T02:34:42;13.00;73.30
27266;DHT22;14766;51.380;13.762;2023-04-01T02:37:11;13.00;73.30
27266;DHT22;14766;51.380;13.762;2023-04-01T02:39:40;13.00;73.30
27266;DHT22;14766;51.380;13.762;2023-04-01T02:42:10;13.10;73.40
27266;DHT22;14766;51.380;13.762;2023-04-01T02:44:37;13.10;73.40
27266;DHT22;14766;51.380;13.762;2023-04-01T02:47:05;13.10;73.40
27266;DHT22;14766;51.380;13.762;2023-04-01T02:49:32;13.10;73.30
27266;DHT22;14766;51.380;13.762;2023-04-01T02:51:59;13.10;73.40
27266;DHT22;14766;51.380;13.762;2023-04-01T02:54:27;13.10;73.30
27266;DHT22;14766;51.380;13.762;2023-04-01T02:56:56;13.10;73.40
27266;DHT22;14766;51.380;13.762;2023-04-01T02:59:23;13.00;73.30
27266;DHT22;14766;51.380;13.762;2023-04-01T03:01:50;13.10;73.30
27266;DHT22;14766;51.380;13.762;2023-04-01T03:04:17;13.10;73.30
27266;DHT22;14766;51.380;13.762;2023-04-01T03:06:44;13.00;73.20
27266;DHT22;14766;51.380;13.762;2023-04-01T03:09:11;13.00;73.10
27266;DHT22;14766;51.380;13.762;2023-04-01T03:11:38;13.00;73.30
27266;DHT22;14766;51.380;13.762;2023-04-01T03:14:05;13.00;73.30
27266;DHT22;14766;51.380;13.762;2023-04-01T03:16:33;13.00;73.30
27266;DHT22;14766;51.380;13.762;2023-04-01T03:19:00;13.00;73.20
27266;DHT22;14766;51.380;13.762;2023-04-01T03:21:29;13.00;73.10
27266;DHT22;14766;51.380;13.762;2023-04-01T03:23:56;13.00;73.10
27266;DHT22;14766;51.380;13.762;2023-04-01T03:26:23;13.00;72.90
27266;DHT22;14766;51.380;13.762;2023-04-01T03:28:50;13.00;72.80
27266;DHT22;14766;51.380;13.762;2023-04-01T03:31:17;13.00;72.80
27266;DHT22;14766;51.380;13.762;2023-04-01T03:33:51;13.00;72.80
27266;DHT22;14766;51.380;13.762;2023-04-01T03:36:18;13.00;72.80
27266;DHT22;14766;51.380;13.762;2023-04-01T03:38:46;13.00;72.80
27266;DHT22;14766;51.380;13.762;2023-04-01T03:41:18;13.00;72.70
27266;DHT22;14766;51.380;13.762;2023-04-01T03:43:45;13.10;72.60
27266;DHT22;14766;51.380;13.762;2023-04-01T03:46:17;13.10;72.40
27266;DHT22;14766;51.380;13.762;2023-04-01T03:48:46;13.10;72.30
27266;DHT22;14766;51.380;13.762;2023-04-01T03:51:13;13.00;72.10
27266;DHT22;14766;51.380;13.762;2023-04-01T03:53:40;13.00;72.00
27266;DHT22;14766;51.380;13.762;2023-04-01T03:56:08;13.00;72.10
27266;DHT22;14766;51.380;13.762;2023-04-01T03:58:36;13.00;71.90
27266;DHT22;14766;51.380;13.762;2023-04-01T04:01:20;13.00;71.90
27266;DHT22;14766;51.380;13.762;2023-04-01T04:03:51;13.00;71.80
27266;DHT22;14766;51.380;13.762;2023-04-01T04:06:19;13.10;71.80
27266;DHT22;14766;51.380;13.762;2023-04-01T04:08:47;13.00;71.80
27266;DHT22;14766;51.380;13.762;2023-04-01T04:11:16;13.10;71.70
27266;DHT22;14766;51.380;13.762;2023-04-01T04:13:44;13.10;71.50
27266;DHT22;14766;51.380;13.762;2023-04-01T04:16:11;13.10;71.60
27266;DHT22;14766;51.380;13.762;2023-04-01T04:18:43;13.10;71.40
27266;DHT22;14766;51.380;13.762;2023-04-01T04:21:13;13.10;71.20
27266;DHT22;14766;51.380;13.762;2023-04-01T04:23:43;13.10;72.00
27266;DHT22;14766;51.380;13.762;2023-04-01T04:26:13;13.10;71.20
27266;DHT22;14766;51.380;13.762;2023-04-01T04:28:46;13.10;71.20
27266;DHT22;14766;51.380;13.762;2023-04-01T04:31:19;13.10;71.10
27266;DHT22;14766;51.380;13.762;2023-04-01T04:33:48;13.00;71.00
27266;DHT22;14766;51.380;13.762;2023-04-01T04:36:15;13.10;71.10
27266;DHT22;14766;51.380;13.762;2023-04-01T04:38:42;13.10;71.00
27266;DHT22;14766;51.380;13.762;2023-04-01T04:41:14;13.10;71.00
27266;DHT22;14766;51.380;13.762;2023-04-01T04:43:53;13.10;70.80
27266;DHT22;14766;51.380;13.762;2023-04-01T04:46:21;13.10;70.60
27266;DHT22;14766;51.380;13.762;2023-04-01T04:48:54;13.10;70.60
27266;DHT22;14766;51.380;13.762;2023-04-01T04:51:21;13.10;70.50
27266;DHT22;14766;51.380;13.762;2023-04-01T04:53:49;13.10;70.50
27266;DHT22;14766;51.380;13.762;2023-04-01T04:56:22;13.10;70.50
27266;DHT22;14766;51.380;13.762;2023-04-01T04:59:10;13.10;70.50
27266;DHT22;14766;51.380;13.762;2023-04-01T05:01:47;13.10;70.60
27266;DHT22;14766;51.380;13.762;2023-04-01T05:04:14;13.20;70.70
27266;DHT22;14766;51.380;13.762;2023-04-01T05:06:42;13.20;70.50
27266;DHT22;14766;51.380;13.762;2023-04-01T05:09:11;13.10;70.50
27266;DHT22;14766;51.380;13.762;2023-04-01T05:11:39;13.20;70.60
27266;DHT22;14766;51.380;13.762;2023-04-01T05:14:14;13.20;70.40
27266;DHT22;14766;51.380;13.762;2023-04-01T05:16:48;13.10;70.30
27266;DHT22;14766;51.380;13.762;2023-04-01T05:19:17;13.20;70.30
27266;DHT22;14766;51.380;13.762;2023-04-01T05:21:44;13.20;70.40
27266;DHT22;14766;51.380;13.762;2023-04-01T05:24:11;13.10;70.40
27266;DHT22;14766;51.380;13.762;2023-04-01T05:26:39;13.10;70.20
27266;DHT22;14766;51.380;13.762;2023-04-01T05:29:06;13.20;70.40
27266;DHT22;14766;51.380;13.762;2023-04-01T05:31:34;13.10;70.00
27266;DHT22;14766;51.380;13.762;2023-04-01T05:34:03;13.20;70.30
27266;DHT22;14766;51.380;13.762;2023-04-01T05:36:31;13.10;70.30
27266;DHT22;14766;51.380;13.762;2023-04-01T05:38:59;13.10;70.40
27266;DHT22;14766;51.380;13.762;2023-04-01T05:41:27;13.10;70.50
27266;DHT22;14766;51.380;13.762;2023-04-01T05:43:55;13.10;70.40
27266;DHT22;14766;51.380;13.762;2023-04-01T05:46:41;13.10;70.50
27266;DHT22;14766;51.380;13.762;2023-04-01T05:49:19;13.10;70.60
27266;DHT22;14766;51.380;13.762;2023-04-01T05:51:48;13.10;70.50
27266;DHT22;14766;51.380;13.762;2023-04-01T05:54:18;13.10;70.70
27266;DHT22;14766;51.380;13.762;2023-04-01T05:56:46;13.10;71.00
27266;DHT22;14766;51.380;13.762;2023-04-01T05:59:14;13.10;71.00
27266;DHT22;14766;51.380;13.762;2023-04-01T06:01:43;13.10;71.10
27266;DHT22;14766;51.380;13.762;2023-04-01T06:04:14;13.10;71.00
27266;DHT22;14766;51.380;13.762;2023-04-01T06:06:44;13.10;71.20
27266;DHT22;14766;51.380;13.762;2023-04-01T06:09:17;13.20;71.20
27266;DHT22;14766;51.380;13.762;2023-04-01T06:12:14;13.20;71.30
27266;DHT22;14766;51.380;13.762;2023-04-01T06:21:11;13.20;70.70
27266;DHT22;14766;51.380;13.762;2023-04-01T06:29:42;13.30;71.30
27266;DHT22;14766;51.380;13.762;2023-04-01T06:40:44;13.30;70.80
27266;DHT22;14766;51.380;13.762;2023-04-01T06:49:32;13.50;70.70
27266;DHT22;14766;51.380;13.762;2023-04-01T06:52:26;13.50;70.70
27266;DHT22;14766;51.380;13.762;2023-04-01T06:58:06;13.50;70.80
27266;DHT22;14766;51.380;13.762;2023-04-01T07:00:43;13.50;70.60
27266;DHT22;14766;51.380;13.762;2023-04-01T07:06:35;13.60;70.90
27266;DHT22;14766;51.380;13.762;2023-04-01T07:09:16;13.60;70.70
27266;DHT22;14766;51.380;13.762;2023-04-01T07:12:18;13.60;70.60
27266;DHT22;14766;51.380;13.762;2023-04-01T07:18:19;13.70;70.70
27266;DHT22;14766;51.380;13.762;2023-04-01T07:20:48;13.80;70.40
27266;DHT22;14766;51.380;13.762;2023-04-01T07:23:33;13.80;70.30
27266;DHT22;14766;51.380;13.762;2023-04-01T07:26:27;13.80;70.20
27266;DHT22;14766;51.380;13.762;2023-04-01T07:28:57;13.90;70.20
27266;DHT22;14766;51.380;13.762;2023-04-01T07:43:21;14.00;69.50
27266;DHT22;14766;51.380;13.762;2023-04-01T07:46:28;14.10;69.60
27266;DHT22;14766;51.380;13.762;2023-04-01T07:49:24;14.10;69.40
27266;DHT22;14766;51.380;13.762;2023-04-01T07:52:16;14.00;69.10
27266;DHT22;14766;51.380;13.762;2023-04-01T07:55:16;14.10;69.30
27266;DHT22;14766;51.380;13.762;2023-04-01T08:06:29;14.10;69.00
27266;DHT22;14766;51.380;13.762;2023-04-01T08:09:07;14.10;68.70
27266;DHT22;14766;51.380;13.762;2023-04-01T08:18:41;14.10;67.90
27266;DHT22;14766;51.380;13.762;2023-04-01T08:21:15;14.10;66.60
27266;DHT22;14766;51.380;13.762;2023-04-01T08:23:47;14.10;66.80
27266;DHT22;14766;51.380;13.762;2023-04-01T08:26:19;14.10;66.50
27266;DHT22;14766;51.380;13.762;2023-04-01T08:31:56;14.20;67.30
27266;DHT22;14766;51.380;13.762;2023-04-01T08:34:30;14.20;67.20
27266;DHT22;14766;51.380;13.762;2023-04-01T08:37:11;14.20;66.50
27266;DHT22;14766;51.380;13.762;2023-04-01T08:39:45;14.20;67.10
27266;DHT22;14766;51.380;13.762;2023-04-01T08:42:31;14.30;67.00
27266;DHT22;14766;51.380;13.762;2023-04-01T08:54:29;14.30;66.80
27266;DHT22;14766;51.380;13.762;2023-04-01T08:57:22;14.30;67.30
27266;DHT22;14766;51.380;13.762;2023-04-01T09:03:53;14.40;67.50
27266;DHT22;14766;51.380;13.762;2023-04-01T09:15:30;14.50;67.00
27266;DHT22;14766;51.380;13.762;2023-04-01T09:32:25;14.80;66.10
27266;DHT22;14766;51.380;13.762;2023-04-01T10:07:33;15.60;62.20
27266;DHT22;14766;51.380;13.762;2023-04-01T10:10:41;15.60;61.20
27266;DHT22;14766;51.380;13.762;2023-04-01T10:21:59;15.70;60.90
27266;DHT22;14766;51.380;13.762;2023-04-01T10:27:21;15.60;59.70
27266;DHT22;14766;51.380;13.762;2023-04-01T10:38:10;15.70;60.00
27266;DHT22;14766;51.380;13.762;2023-04-01T10:52:48;15.80;58.90
27266;DHT22;14766;51.380;13.762;2023-04-01T11:31:57;16.00;61.20
27266;DHT22;14766;51.380;13.762;2023-04-01T11:37:43;16.20;63.90
27266;DHT22;14766;51.380;13.762;2023-04-01T11:40:58;16.30;62.30
27266;DHT22;14766;51.380;13.762;2023-04-01T12:15:49;18.00;59.20
27266;DHT22;14766;51.380;13.762;2023-04-01T12:18:40;18.00;58.50
27266;DHT22;14766;51.380;13.762;2023-04-01T12:38:23;18.10;58.50
27266;DHT22;14766;51.380;13.762;2023-04-01T12:41:00;18.10;58.60
27266;DHT22;14766;51.380;13.762;2023-04-01T12:51:50;18.10;57.60
27266;DHT22;14766;51.380;13.762;2023-04-01T12:59:24;18.00;57.60
27266;DHT22;14766;51.380;13.762;2023-04-01T13:02:10;17.90;55.50
27266;DHT22;14766;51.380;13.762;2023-04-01T13:04:41;17.70;55.10
27266;DHT22;14766;51.380;13.762;2023-04-01T13:10:11;17.40;57.50
27266;DHT22;14766;51.380;13.762;2023-04-01T13:15:25;17.10;58.80
27266;DHT22;14766;51.380;13.762;2023-04-01T13:18:33;17.00;59.30
27266;DHT22;14766;51.380;13.762;2023-04-01T13:29:53;16.70;61.60
27266;DHT22;14766;51.380;13.762;2023-04-01T13:42:54;16.70;61.30
27266;DHT22;14766;51.380;13.762;2023-04-01T13:54:12;17.00;62.20
27266;DHT22;14766;51.380;13.762;2023-04-01T14:00:42;17.30;61.70
27266;DHT22;14766;51.380;13.762;2023-04-01T14:08:51;17.50;60.40
27266;DHT22;14766;51.380;13.762;2023-04-01T14:11:43;17.50;60.10
27266;DHT22;14766;51.380;13.762;2023-04-01T14:14:31;17.40;59.30
27266;DHT22;14766;51.380;13.762;2023-04-01T14:20:02;17.40;59.40
27266;DHT22;14766;51.380;13.762;2023-04-01T14:28:42;17.20;59.50
27266;DHT22;14766;51.380;13.762;2023-04-01T14:31:24;17.10;59.50
27266;DHT22;14766;51.380;13.762;2023-04-01T14:36:46;17.10;59.60
27266;DHT22;14766;51.380;13.762;2023-04-01T14:50:48;17.00;60.30
27266;DHT22;14766;51.380;13.762;2023-04-01T14:53:27;17.00;59.90
27266;DHT22;14766;51.380;13.762;2023-04-01T14:55:56;16.90;59.30
27266;DHT22;14766;51.380;13.762;2023-04-01T14:58:42;16.90;59.40
27266;DHT22;14766;51.380;13.762;2023-04-01T15:10:01;16.80;60.60
27266;DHT22;14766;51.380;13.762;2023-04-01T15:15:59;16.70;60.60
27266;DHT22;14766;51.380;13.762;2023-04-01T15:21:56;16.60;60.70
27266;DHT22;14766;51.380;13.762;2023-04-01T15:27:16;16.60;61.00
27266;DHT22;14766;51.380;13.762;2023-04-01T15:40:22;16.50;62.40
27266;DHT22;14766;51.380;13.762;2023-04-01T15:51:21;16.40;62.40
27266;DHT22;14766;51.380;13.762;2023-04-01T16:02:16;16.40;62.00
27266;DHT22;14766;51.380;13.762;2023-04-01T16:19:51;16.30;61.00
27266;DHT22;14766;51.380;13.762;2023-04-01T16:22:45;16.30;61.10
27266;DHT22;14766;51.380;13.762;2023-04-01T16:25:43;16.20;61.30
27266;DHT22;14766;51.380;13.762;2023-04-01T16:37:12;16.10;61.20
27266;DHT22;14766;51.380;13.762;2023-04-01T16:39:49;16.10;61.20
27266;DHT22;14766;51.380;13.762;2023-04-01T16:47:41;16.00;61.30
27266;DHT22;14766;51.380;13.762;2023-04-01T16:50:19;16.00;61.40
27266;DHT22;14766;51.380;13.762;2023-04-01T16:56:10;16.00;61.90
27266;DHT22;14766;51.380;13.762;2023-04-01T17:01:23;15.90;61.90
27266;DHT22;14766;51.380;13.762;2023-04-01T17:03:53;15.90;62.10
27266;DHT22;14766;51.380;13.762;2023-04-01T17:06:31;15.90;62.40
27266;DHT22;14766;51.380;13.762;2023-04-01T17:12:13;15.80;62.60
27266;DHT22;14766;51.380;13.762;2023-04-01T17:14:54;15.80;62.50
27266;DHT22;14766;51.380;13.762;2023-04-01T17:17:34;15.70;62.70
27266;DHT22;14766;51.380;13.762;2023-04-01T17:23:01;15.70;62.90
27266;DHT22;14766;51.380;13.762;2023-04-01T17:25:47;15.70;63.10
27266;DHT22;14766;51.380;13.762;2023-04-01T17:31:33;15.60;63.30
27266;DHT22;14766;51.380;13.762;2023-04-01T18:02:12;15.30;64.40
27266;DHT22;14766;51.380;13.762;2023-04-01T18:14:07;15.10;66.60
27266;DHT22;14766;51.380;13.762;2023-04-01T18:22:34;15.00;66.20
27266;DHT22;14766;51.380;13.762;2023-04-01T18:25:22;15.00;66.80
27266;DHT22;14766;51.380;13.762;2023-04-01T18:30:42;14.90;66.80
27266;DHT22;14766;51.380;13.762;2023-04-01T18:33:24;14.90;67.10
27266;DHT22;14766;51.380;13.762;2023-04-01T18:38:39;14.80;67.80
27266;DHT22;14766;51.380;13.762;2023-04-01T18:41:35;14.80;67.70
27266;DHT22;14766;51.380;13.762;2023-04-01T18:47:38;14.80;68.20
27266;DHT22;14766;51.380;13.762;2023-04-01T18:53:39;14.70;68.60
27266;DHT22;14766;51.380;13.762;2023-04-01T18:58:45;14.60;68.50
27266;DHT22;14766;51.380;13.762;2023-04-01T19:01:28;14.60;68.30
27266;DHT22;14766;51.380;13.762;2023-04-01T19:07:01;14.60;68.80
27266;DHT22;14766;51.380;13.762;2023-04-01T19:09:44;14.50;68.70
27266;DHT22;14766;51.380;13.762;2023-04-01T19:26:33;14.40;68.70
27266;DHT22;14766;51.380;13.762;2023-04-01T19:29:24;14.40;68.90
27266;DHT22;14766;51.380;13.762;2023-04-01T19:37:56;14.30;68.60
27266;DHT22;14766;51.380;13.762;2023-04-01T19:46:13;14.20;68.80
27266;DHT22;14766;51.380;13.762;2023-04-01T19:52:08;14.10;68.70
27266;DHT22;14766;51.380;13.762;2023-04-01T19:57:46;14.00;69.10
27266;DHT22;14766;51.380;13.762;2023-04-01T20:11:28;13.70;69.50
27266;DHT22;14766;51.380;13.762;2023-04-01T20:19:55;13.70;69.80
27266;DHT22;14766;51.380;13.762;2023-04-01T20:27:55;13.60;69.50
27266;DHT22;14766;51.380;13.762;2023-04-01T20:38:23;13.50;69.70
27266;DHT22;14766;51.380;13.762;2023-04-01T20:43:57;13.50;69.70
27266;DHT22;14766;51.380;13.762;2023-04-01T20:46:53;13.50;70.10
27266;DHT22;14766;51.380;13.762;2023-04-01T20:49:45;13.50;69.70
27266;DHT22;14766;51.380;13.762;2023-04-01T20:53:05;13.40;70.00
27266;DHT22;14766;51.380;13.762;2023-04-01T20:55:28;13.40;69.90
27266;DHT22;14766;51.380;13.762;2023-04-01T20:58:12;13.40;69.80
27266;DHT22;14766;51.380;13.762;2023-04-01T21:09:17;13.30;69.70
27266;DHT22;14766;51.380;13.762;2023-04-01T21:17:57;13.30;70.00
27266;DHT22;14766;51.380;13.762;2023-04-01T21:23:31;13.20;69.70
27266;DHT22;14766;51.380;13.762;2023-04-01T21:38:58;13.10;69.80
27266;DHT22;14766;51.380;13.762;2023-04-01T21:41:17;13.10;70.10
27266;DHT22;14766;51.380;13.762;2023-04-01T22:09:38;12.80;69.70
27266;DHT22;14766;51.380;13.762;2023-04-01T22:12:19;12.80;69.90
27266;DHT22;14766;51.380;13.762;2023-04-01T22:17:53;12.70;70.90
27266;DHT22;14766;51.380;13.762;2023-04-01T22:20:47;12.80;70.10
27266;DHT22;14766;51.380;13.762;2023-04-01T22:28:56;12.70;69.60
27266;DHT22;14766;51.380;13.762;2023-04-01T22:31:49;12.60;69.60
27266;DHT22;14766;51.380;13.762;2023-04-01T22:37:42;12.60;69.30
27266;DHT22;14766;51.380;13.762;2023-04-01T22:40:25;12.50;69.30
27266;DHT22;14766;51.380;13.762;2023-04-01T22:43:22;12.50;69.40
27266;DHT22;14766;51.380;13.762;2023-04-01T22:48:45;12.40;69.50
27266;DHT22;14766;51.380;13.762;2023-04-01T22:51:18;12.30;69.50
27266;DHT22;14766;51.380;13.762;2023-04-01T22:56:22;12.30;69.90
27266;DHT22;14766;51.380;13.762;2023-04-01T22:59:19;12.20;69.70
27266;DHT22;14766;51.380;13.762;2023-04-01T23:02:00;12.20;69.70
27266;DHT22;14766;51.380;13.762;2023-04-01T23:04:35;12.10;69.70
27266;DHT22;14766;51.380;13.762;2023-04-01T23:08:07;12.00;69.70
27266;DHT22;14766;51.380;13.762;2023-04-01T23:10:44;11.90;69.70
27266;DHT22;14766;51.380;13.762;2023-04-01T23:13:19;11.90;69.90
27266;DHT22;14766;51.380;13.762;2023-04-01T23:15:51;11.80;69.90
27266;DHT22;14766;51.380;13.762;2023-04-01T23:18:52;11.80;69.90
27266;DHT22;14766;51.380;13.762;2023-04-01T23:21:41;11.80;70.00
27266;DHT22;14766;51.380;13.762;2023-04-01T23:26:58;11.70;70.10
27266;DHT22;14766;51.380;13.762;2023-04-01T23:29:27;11.70;70.10
27266;DHT22;14766;51.380;13.762;2023-04-01T23:32:02;11.60;70.20
27266;DHT22;14766;51.380;13.762;2023-04-01T23:34:34;11.60;70.20
27266;DHT22;14766;51.380;13.762;2023-04-01T23:37:05;11.60;70.30
27266;DHT22;14766;51.380;13.762;2023-04-01T23:39:42;11.60;70.80
27266;DHT22;14766;51.380;13.762;2023-04-01T23:44:49;11.50;70.20
27266;DHT22;14766;51.380;13.762;2023-04-01T23:47:20;11.50;70.20
27266;DHT22;14766;51.380;13.762;2023-04-01T23:49:55;11.50;70.00
27266;DHT22;14766;51.380;13.762;2023-04-01T23:52:43;11.50;69.80
27266;DHT22;14766;51.380;13.762;2023-04-01T23:55:31;11.50;69.90
